Time;durP1;ratioP1;P1;durP2;ratioP2;P2;SDS_P1;SDS_P2;PMS_P1;PMS_P2;Temp;Humidity;BMP_temperature;BMP_pressure;BME280_temperature;BME280_humidity;BME280_pressure;Samples;Min_cycle;Max_cycle;Signal;HPM_P1;HPM_P2
2022/04/12 00:00:41;;;;;;;7.03;2.17;;;9.50;99.90;;;;;;5075245;28;20263;-41
2022/04/12 00:03:08;;;;;;;3.10;2.40;;;9.60;99.90;;;;;;5080296;28;20215;-46
2022/04/12 00:05:35;;;;;;;5.40;2.33;;;9.50;99.90;;;;;;5100247;28;20180;-45
2022/04/12 00:08:01;;;;;;;3.90;2.47;;;9.50;99.90;;;;;;5100203;28;20225;-46
2022/04/12 00:10:29;;;;;;;5.10;2.30;;;9.50;99.90;;;;;;5100445;28;20182;-44
2022/04/12 00:12:56;;;;;;;4.17;2.60;;;9.50;99.90;;;;;;5099583;28;20202;-46
2022/04/12 00:15:22;;;;;;;5.20;2.60;;;9.50;99.90;;;;;;5099889;28;20206;-44
2022/04/12 00:20:32;;;;;;;4.17;2.60;;;9.40;99.90;;;;;;5100303;28;20255;-44
2022/04/12 00:22:59;;;;;;;5.17;2.43;;;9.40;99.90;;;;;;5100557;28;20199;-46
2022/04/12 00:25:26;;;;;;;4.33;1.97;;;9.40;99.90;;;;;;5100584;28;20186;-46
2022/04/12 00:27:53;;;;;;;5.23;2.70;;;9.40;99.90;;;;;;5100238;28;20189;-46
2022/04/12 00:30:19;;;;;;;3.20;2.50;;;9.40;99.90;;;;;;5100279;28;20289;-45
2022/04/12 00:32:46;;;;;;;3.57;2.50;;;9.40;99.90;;;;;;5099964;28;20175;-46
2022/04/12 00:35:12;;;;;;;7.03;2.33;;;9.40;99.90;;;;;;5100085;28;20193;-47
2022/04/12 00:37:38;;;;;;;6.10;3.00;;;9.40;99.90;;;;;;5099628;28;20672;-47
2022/04/12 00:40:04;;;;;;;4.47;2.90;;;9.40;99.90;;;;;;5100084;28;20223;-45
2022/04/12 00:42:31;;;;;;;3.73;2.43;;;9.50;99.90;;;;;;5099872;28;20266;-47
2022/04/12 00:44:57;;;;;;;2.83;2.20;;;9.40;99.90;;;;;;5081030;28;20171;-47
2022/04/12 00:47:22;;;;;;;3.63;2.57;;;9.50;99.90;;;;;;5099487;28;20203;-47
2022/04/12 00:49:48;;;;;;;4.03;2.87;;;9.50;99.90;;;;;;5081739;28;20694;-47
2022/04/12 00:52:15;;;;;;;5.47;3.10;;;9.50;99.90;;;;;;5099461;28;20171;-45
2022/04/12 00:54:43;;;;;;;5.40;2.80;;;9.50;99.90;;;;;;5099202;28;20175;-46
2022/04/12 00:57:10;;;;;;;4.83;2.93;;;9.50;99.90;;;;;;5099814;28;20195;-46
2022/04/12 00:59:36;;;;;;;4.03;3.00;;;9.50;99.90;;;;;;5099998;28;20175;-46
2022/04/12 01:02:06;;;;;;;3.83;2.87;;;9.40;99.90;;;;;;5100413;28;20182;-47
2022/04/12 01:04:32;;;;;;;4.17;2.73;;;9.40;99.90;;;;;;5099549;28;20590;-46
2022/04/12 01:07:02;;;;;;;8.20;3.83;;;9.40;99.90;;;;;;5100130;28;20215;-45
2022/04/12 01:09:28;;;;;;;7.10;3.13;;;9.40;99.90;;;;;;5099973;28;20206;-46
2022/04/12 01:11:55;;;;;;;4.67;2.87;;;9.40;99.90;;;;;;5100327;28;20171;-46
2022/04/12 01:14:22;;;;;;;5.37;2.80;;;9.40;99.90;;;;;;5099243;28;20253;-46
2022/04/12 01:16:48;;;;;;;3.53;2.50;;;9.40;99.90;;;;;;5099859;28;20209;-45
2022/04/12 01:19:13;;;;;;;4.57;3.17;;;9.40;99.90;;;;;;5100321;28;20574;-45
2022/04/12 01:21:52;;;;;;;3.70;2.73;;;9.40;99.90;;;;;;5100648;28;20223;-45
2022/04/12 01:24:19;;;;;;;3.53;2.57;;;9.40;99.90;;;;;;5100172;28;20199;-46
2022/04/12 01:26:44;;;;;;;5.37;3.07;;;9.40;99.90;;;;;;5099945;28;20213;-46
2022/04/12 01:29:10;;;;;;;4.73;2.97;;;9.30;99.90;;;;;;5081809;28;20200;-46
2022/04/12 01:31:36;;;;;;;4.33;2.73;;;9.30;99.90;;;;;;5099676;28;20282;-45
2022/04/12 01:34:01;;;;;;;5.97;2.80;;;9.40;99.90;;;;;;5081861;28;20179;-46
2022/04/12 01:36:27;;;;;;;5.23;3.00;;;9.40;99.90;;;;;;5099773;28;20211;-46
2022/04/12 01:38:52;;;;;;;4.57;3.20;;;9.40;99.90;;;;;;5099962;28;20180;-47
2022/04/12 01:41:18;;;;;;;4.23;3.23;;;9.40;99.90;;;;;;5100085;28;20178;-46
2022/04/12 01:43:43;;;;;;;5.10;2.87;;;9.40;99.90;;;;;;5099143;28;20195;-45
2022/04/12 01:46:09;;;;;;;7.67;3.17;;;9.40;99.90;;;;;;5100715;28;20193;-45
2022/04/12 01:48:35;;;;;;;3.77;2.70;;;9.50;99.90;;;;;;5101003;28;20206;-46
2022/04/12 01:51:00;;;;;;;4.87;2.97;;;9.40;99.90;;;;;;5100880;28;20202;-46
2022/04/12 01:53:26;;;;;;;5.33;2.80;;;9.40;99.90;;;;;;5101708;28;20187;-44
2022/04/12 01:55:51;;;;;;;7.17;3.30;;;9.40;99.90;;;;;;5101538;28;20203;-46
2022/04/12 01:58:17;;;;;;;6.90;3.53;;;9.50;99.90;;;;;;5101191;28;20174;-45
2022/04/12 02:00:43;;;;;;;7.17;2.97;;;9.50;99.90;;;;;;5078769;28;20189;-40
2022/04/12 02:03:09;;;;;;;4.03;3.00;;;9.50;99.90;;;;;;5094871;28;20207;-41
2022/04/12 02:05:35;;;;;;;4.83;3.20;;;9.50;99.90;;;;;;5095232;28;20612;-42
2022/04/12 02:08:00;;;;;;;6.63;3.67;;;9.50;99.90;;;;;;5095165;28;20167;-44
2022/04/12 02:10:26;;;;;;;6.27;3.40;;;9.40;99.90;;;;;;5094918;28;20171;-44
2022/04/12 02:12:52;;;;;;;5.33;3.53;;;9.40;99.90;;;;;;5095133;28;20733;-44
2022/04/12 02:15:18;;;;;;;4.40;3.40;;;9.40;99.90;;;;;;5095097;28;20590;-44
2022/04/12 02:17:43;;;;;;;4.03;2.87;;;9.40;99.90;;;;;;5094897;28;20233;-45
2022/04/12 02:20:09;;;;;;;6.00;3.60;;;9.40;99.90;;;;;;5094695;28;20206;-45
2022/04/12 02:22:36;;;;;;;4.67;3.30;;;9.40;99.90;;;;;;5094532;28;20175;-45
2022/04/12 02:25:03;;;;;;;6.60;3.57;;;9.40;99.90;;;;;;5094056;28;20190;-45
2022/04/12 02:27:29;;;;;;;7.50;3.63;;;9.40;99.90;;;;;;5094455;28;20199;-43
2022/04/12 02:29:54;;;;;;;6.63;3.93;;;9.40;99.90;;;;;;5094708;28;20175;-45
2022/04/12 02:32:20;;;;;;;4.43;3.10;;;9.40;99.90;;;;;;5094581;28;20250;-45
2022/04/12 02:34:45;;;;;;;5.40;3.53;;;9.40;99.90;;;;;;5094649;28;20533;-46
2022/04/12 02:37:11;;;;;;;6.17;3.40;;;9.40;99.90;;;;;;5094311;28;20249;-43
2022/04/12 02:39:37;;;;;;;5.73;3.70;;;9.40;99.90;;;;;;5094222;28;20175;-44
2022/04/12 02:42:02;;;;;;;4.87;3.37;;;9.40;99.90;;;;;;5094266;28;20720;-44
2022/04/12 02:44:28;;;;;;;4.80;3.33;;;9.40;99.90;;;;;;5094323;28;20217;-43
2022/04/12 02:46:54;;;;;;;5.03;3.17;;;9.40;99.90;;;;;;5094335;28;20589;-42
2022/04/12 02:49:19;;;;;;;5.33;3.70;;;9.40;99.90;;;;;;5094107;28;20193;-44
2022/04/12 02:51:48;;;;;;;5.40;3.70;;;9.40;99.90;;;;;;5094085;28;20184;-43
2022/04/12 02:54:14;;;;;;;4.93;3.53;;;9.40;99.90;;;;;;5094089;28;20206;-45
2022/04/12 02:56:39;;;;;;;6.63;3.70;;;9.50;99.90;;;;;;5094052;28;20615;-44
2022/04/12 02:59:05;;;;;;;6.70;4.03;;;9.40;99.90;;;;;;5093945;28;20199;-44
2022/04/12 03:01:31;;;;;;;5.33;3.50;;;9.40;99.90;;;;;;5094192;28;20671;-44
2022/04/12 03:03:56;;;;;;;7.67;3.57;;;9.40;99.90;;;;;;5093685;28;20275;-44
2022/04/12 03:06:22;;;;;;;6.70;3.20;;;9.40;99.90;;;;;;5095408;28;20190;-44
2022/04/12 03:08:47;;;;;;;4.83;3.63;;;9.30;99.90;;;;;;5093775;28;20171;-44
2022/04/12 03:11:13;;;;;;;5.67;3.87;;;9.20;99.90;;;;;;5094014;28;20179;-44
2022/04/12 03:13:39;;;;;;;5.87;3.90;;;9.20;99.90;;;;;;5094263;28;20225;-42
2022/04/12 03:16:05;;;;;;;5.00;3.50;;;9.20;99.90;;;;;;5093703;28;20257;-43
2022/04/12 03:18:30;;;;;;;4.60;3.63;;;9.10;99.90;;;;;;5093984;28;20190;-45
2022/04/12 03:20:56;;;;;;;7.13;3.47;;;9.00;99.90;;;;;;5093930;28;20265;-43
2022/04/12 03:23:22;;;;;;;5.07;3.80;;;9.10;99.90;;;;;;5093834;28;20206;-44
2022/04/12 03:25:50;;;;;;;4.47;3.57;;;9.00;99.90;;;;;;5093789;28;20203;-44
2022/04/12 03:28:16;;;;;;;5.47;3.87;;;9.10;99.90;;;;;;5093737;28;20574;-44
2022/04/12 03:30:41;;;;;;;7.67;4.20;;;9.00;99.90;;;;;;5093472;28;20183;-44
2022/04/12 03:33:07;;;;;;;5.23;3.50;;;9.00;99.90;;;;;;5093440;28;20228;-43
2022/04/12 03:35:32;;;;;;;4.47;3.60;;;8.90;99.90;;;;;;5093606;28;20179;-42
2022/04/12 03:38:01;;;;;;;7.13;4.00;;;8.90;99.90;;;;;;5092520;28;20251;-45
2022/04/12 03:40:30;;;;;;;7.40;3.77;;;8.80;99.90;;;;;;5093404;28;20179;-43
2022/04/12 03:43:01;;;;;;;6.10;3.63;;;8.80;99.90;;;;;;5093302;28;20251;-42
2022/04/12 03:45:27;;;;;;;5.57;3.63;;;8.80;99.90;;;;;;5093317;28;20570;-44
2022/04/12 03:47:53;;;;;;;8.77;3.90;;;8.80;99.90;;;;;;5093558;28;20549;-43
2022/04/12 03:50:18;;;;;;;6.60;3.73;;;8.80;99.90;;;;;;5093239;28;20187;-44
2022/04/12 03:52:44;;;;;;;5.40;3.33;;;8.80;99.90;;;;;;5093255;28;20175;-44
2022/04/12 03:55:12;;;;;;;10.27;3.90;;;8.70;99.90;;;;;;5093243;28;20587;-45
2022/04/12 03:57:38;;;;;;;5.67;3.63;;;8.70;99.90;;;;;;5093328;28;20206;-42
2022/04/12 04:00:08;;;;;;;5.67;3.50;;;8.70;99.90;;;;;;5094321;28;20167;-45
2022/04/12 04:02:37;;;;;;;6.23;3.20;;;8.60;99.90;;;;;;5092968;28;20182;-44
2022/04/12 04:05:04;;;;;;;6.97;3.73;;;8.50;99.90;;;;;;5093050;28;20209;-44
2022/04/12 04:07:29;;;;;;;5.90;3.33;;;8.60;99.90;;;;;;5093058;28;20211;-46
2022/04/12 04:09:55;;;;;;;8.03;3.80;;;8.50;99.90;;;;;;5093342;28;20572;-42
2022/04/12 04:12:22;;;;;;;5.73;3.90;;;8.50;99.90;;;;;;5093353;28;20187;-44
2022/04/12 04:14:48;;;;;;;5.07;3.90;;;8.40;99.90;;;;;;5093339;28;20171;-44
2022/04/12 04:17:14;;;;;;;6.43;3.50;;;8.40;99.90;;;;;;5093036;28;20198;-44
2022/04/12 04:19:39;;;;;;;6.93;3.53;;;8.40;99.90;;;;;;5093057;28;20274;-45
2022/04/12 04:22:05;;;;;;;6.03;3.63;;;8.40;99.90;;;;;;5092943;28;20208;-44
2022/04/12 04:24:31;;;;;;;7.03;3.67;;;8.30;99.90;;;;;;5092971;28;20767;-44
2022/04/12 04:26:57;;;;;;;6.10;3.87;;;8.30;99.90;;;;;;5074789;28;20195;-45
2022/04/12 04:29:23;;;;;;;4.83;3.73;;;8.30;99.90;;;;;;5093203;28;20632;-44
2022/04/12 04:31:51;;;;;;;8.10;3.33;;;8.30;99.90;;;;;;5092985;28;20175;-44
2022/04/12 04:34:16;;;;;;;6.70;4.00;;;8.30;99.90;;;;;;5093090;28;20197;-44
2022/04/12 04:36:42;;;;;;;6.73;3.77;;;8.30;99.90;;;;;;5092788;28;20568;-44
2022/04/12 04:39:07;;;;;;;5.93;3.63;;;8.20;99.90;;;;;;5092776;28;20175;-44
2022/04/12 04:41:33;;;;;;;6.23;3.63;;;8.20;99.90;;;;;;5093206;28;20269;-43
2022/04/12 04:44:00;;;;;;;5.37;3.43;;;8.20;99.90;;;;;;5092995;28;20206;-44
2022/04/12 04:46:26;;;;;;;4.77;3.70;;;8.10;99.90;;;;;;5092912;28;20231;-45
2022/04/12 04:48:51;;;;;;;6.47;4.47;;;8.10;99.90;;;;;;5095310;28;20225;-44
2022/04/12 04:51:17;;;;;;;6.60;3.87;;;8.10;99.90;;;;;;5098717;28;20327;-45
2022/04/12 04:53:45;;;;;;;7.63;3.97;;;8.10;99.90;;;;;;5096715;28;20663;-44
2022/04/12 04:56:10;;;;;;;9.40;4.00;;;8.00;99.90;;;;;;5078208;28;20570;-44
2022/04/12 04:58:36;;;;;;;7.33;4.30;;;8.00;99.90;;;;;;5100526;28;20185;-45
2022/04/12 05:01:02;;;;;;;5.70;4.07;;;8.00;99.90;;;;;;5104415;28;20179;-46
2022/04/12 05:03:27;;;;;;;4.40;3.57;;;7.90;99.90;;;;;;5104716;28;20210;-47
2022/04/12 05:05:53;;;;;;;5.67;3.60;;;7.90;99.90;;;;;;5104262;28;20226;-46
2022/04/12 05:08:18;;;;;;;4.93;4.20;;;7.90;99.90;;;;;;5104675;28;20565;-46
2022/04/12 05:10:44;;;;;;;4.90;3.63;;;7.90;99.90;;;;;;5104485;28;20167;-46
2022/04/12 05:13:10;;;;;;;5.43;3.40;;;8.00;99.90;;;;;;5104300;28;20588;-46
2022/04/12 05:15:35;;;;;;;7.23;3.93;;;8.00;99.90;;;;;;5103932;28;20212;-46
2022/04/12 05:18:02;;;;;;;6.30;3.80;;;8.00;99.90;;;;;;5104304;28;20171;-46
2022/04/12 05:20:29;;;;;;;5.43;4.27;;;8.00;99.90;;;;;;5104210;28;20241;-46
2022/04/12 05:22:54;;;;;;;7.20;3.97;;;8.00;99.90;;;;;;5103466;28;20189;-45
2022/04/12 05:25:21;;;;;;;5.63;3.70;;;8.00;99.90;;;;;;5085611;28;20232;-45
2022/04/12 05:27:46;;;;;;;5.40;3.77;;;7.90;99.90;;;;;;5103236;28;20171;-47
2022/04/12 05:30:13;;;;;;;6.90;3.70;;;7.90;99.90;;;;;;5084956;28;20228;-45
2022/04/12 05:32:39;;;;;;;5.63;3.90;;;7.90;99.90;;;;;;5103497;28;20662;-45
2022/04/12 05:35:08;;;;;;;6.80;3.97;;;7.90;99.90;;;;;;5103451;28;20174;-45
2022/04/12 05:37:53;;;;;;;9.53;3.87;;;7.90;99.90;;;;;;5102722;28;20285;-47
2022/04/12 05:40:21;;;;;;;5.70;3.13;;;8.00;99.90;;;;;;5103278;28;20566;-46
2022/04/12 05:42:47;;;;;;;5.17;3.40;;;8.00;99.90;;;;;;5103115;28;20179;-46
2022/04/12 05:45:15;;;;;;;6.37;3.77;;;8.10;99.90;;;;;;5103381;28;20171;-45
2022/04/12 05:47:49;;;;;;;6.97;3.90;;;8.10;99.90;;;;;;5084519;28;20225;-44
2022/04/12 05:50:16;;;;;;;5.57;3.50;;;8.10;99.90;;;;;;5103038;28;20170;-45
2022/04/12 05:52:43;;;;;;;6.57;3.57;;;8.20;99.90;;;;;;5102361;28;20179;-48
2022/04/12 05:55:17;;;;;;;5.53;3.20;;;8.30;99.90;;;;;;5103490;28;20194;-44
2022/04/12 05:57:56;;;;;;;4.73;2.90;;;8.30;99.90;;;;;;5084314;28;20565;-45
2022/04/12 06:00:23;;;;;;;5.40;2.07;;;8.40;99.90;;;;;;5083990;28;20244;-46
2022/04/12 06:02:51;;;;;;;5.57;2.83;;;8.50;99.90;;;;;;5084399;28;20182;-46
2022/04/12 06:05:18;;;;;;;3.83;2.83;;;8.60;99.90;;;;;;5102990;28;20579;-47
2022/04/12 06:07:44;;;;;;;5.23;3.50;;;8.70;99.90;;;;;;5103204;28;20539;-46
2022/04/12 06:10:11;;;;;;;4.97;3.00;;;8.80;99.90;;;;;;5103331;28;20178;-45
2022/04/12 06:12:37;;;;;;;5.73;3.17;;;8.90;99.90;;;;;;5103103;28;20257;-45
2022/04/12 06:15:04;;;;;;;6.27;3.50;;;9.00;99.90;;;;;;5102539;28;20200;-45
2022/04/12 06:17:36;;;;;;;5.40;3.33;;;9.10;99.90;;;;;;5099730;28;20561;-45
2022/04/12 06:20:07;;;;;;;5.27;3.43;;;9.20;99.90;;;;;;5094829;28;20183;-40
2022/04/12 06:22:33;;;;;;;7.30;3.47;;;9.30;99.90;;;;;;5094691;28;20167;-41
2022/04/12 06:25:00;;;;;;;9.20;3.33;;;9.50;99.90;;;;;;5094860;28;20209;-40
2022/04/12 06:27:37;;;;;;;11.63;3.27;;;9.60;99.90;;;;;;5094849;28;20271;-40
2022/04/12 06:30:15;;;;;;;4.97;2.60;;;9.70;99.90;;;;;;5094924;28;20169;-40
2022/04/12 06:32:41;;;;;;;5.83;3.20;;;9.70;99.90;;;;;;5094756;28;20177;-41
2022/04/12 06:35:10;;;;;;;6.87;3.70;;;9.80;99.90;;;;;;5094513;28;20195;-41
2022/04/12 06:37:36;;;;;;;8.03;3.60;;;9.80;99.90;;;;;;5094437;28;20236;-40
2022/04/12 06:40:04;;;;;;;7.33;3.47;;;9.80;99.90;;;;;;5076215;28;20182;-40
2022/04/12 06:42:30;;;;;;;7.33;3.60;;;9.90;99.90;;;;;;5094576;28;20186;-41
2022/04/12 06:44:56;;;;;;;7.60;3.80;;;10.00;99.90;;;;;;5076051;28;20206;-40
2022/04/12 06:47:22;;;;;;;5.57;3.80;;;10.10;99.90;;;;;;5094362;28;20202;-40
2022/04/12 06:49:50;;;;;;;7.20;3.33;;;10.20;99.90;;;;;;5076194;28;20175;-40
2022/04/12 06:52:17;;;;;;;10.73;4.13;;;10.30;99.90;;;;;;5094514;28;20265;-41
2022/04/12 06:54:44;;;;;;;7.13;3.73;;;10.40;99.90;;;;;;5094251;28;20197;-40
2022/04/12 06:57:09;;;;;;;8.87;3.83;;;10.60;99.90;;;;;;5094187;28;20187;-44
2022/04/12 06:59:35;;;;;;;7.50;3.83;;;10.80;99.90;;;;;;5095217;28;20186;-45
2022/04/12 07:02:01;;;;;;;4.37;3.20;;;10.90;99.90;;;;;;5094198;28;20170;-45
2022/04/12 07:04:27;;;;;;;9.57;3.77;;;11.00;99.90;;;;;;5094438;28;20221;-46
2022/04/12 07:06:53;;;;;;;7.93;3.73;;;11.20;99.90;;;;;;5094593;28;20230;-44
2022/04/12 07:09:20;;;;;;;5.97;3.80;;;11.30;99.90;;;;;;5094286;28;20176;-47
2022/04/12 07:11:50;;;;;;;8.60;3.77;;;11.50;99.90;;;;;;5094998;28;20236;-46
2022/04/12 07:14:16;;;;;;;7.93;3.10;;;11.70;99.90;;;;;;5094920;28;20564;-46
2022/04/12 07:16:42;;;;;;;7.67;4.10;;;11.70;99.90;;;;;;5095479;28;20258;-45
2022/04/12 07:19:07;;;;;;;10.53;4.30;;;11.90;99.90;;;;;;5095740;28;20199;-47
2022/04/12 07:21:33;;;;;;;8.53;3.70;;;12.00;99.90;;;;;;5096176;28;20191;-47
2022/04/12 07:23:59;;;;;;;9.23;3.90;;;12.10;99.90;;;;;;5097672;28;20208;-46
2022/04/12 07:26:28;;;;;;;7.97;4.00;;;12.20;99.90;;;;;;5079843;28;20193;-46
2022/04/12 07:28:53;;;;;;;5.43;3.80;;;12.40;99.90;;;;;;5099000;28;20176;-44
2022/04/12 07:31:19;;;;;;;8.33;3.50;;;12.70;99.90;;;;;;5081099;28;20200;-43
2022/04/12 07:33:45;;;;;;;11.60;3.37;;;12.80;99.90;;;;;;5098302;28;20186;-45
2022/04/12 07:36:10;;;;;;;6.90;3.90;;;12.90;99.90;;;;;;5097953;28;20202;-45
2022/04/12 07:38:36;;;;;;;6.17;3.00;;;13.00;99.90;;;;;;5095810;28;20197;-46
2022/04/12 07:41:02;;;;;;;10.00;3.30;;;13.10;99.90;;;;;;5095940;28;20253;-46
2022/04/12 07:43:27;;;;;;;8.23;3.47;;;13.30;99.90;;;;;;5094735;28;20206;-45
2022/04/12 07:45:53;;;;;;;4.70;3.03;;;13.40;99.90;;;;;;5095041;28;20621;-44
2022/04/12 07:48:18;;;;;;;10.67;3.67;;;13.60;99.90;;;;;;5095039;28;20200;-46
2022/04/12 07:50:44;;;;;;;6.77;3.00;;;13.80;99.90;;;;;;5095534;28;20573;-44
2022/04/12 07:53:09;;;;;;;8.70;3.83;;;13.90;99.90;;;;;;5096207;28;20186;-47
2022/04/12 07:55:35;;;;;;;4.90;3.20;;;14.10;99.90;;;;;;5095939;28;20171;-47
2022/04/12 07:58:01;;;;;;;9.03;2.90;;;14.10;99.90;;;;;;5096774;28;20232;-46
2022/04/12 08:00:27;;;;;;;6.10;3.13;;;14.20;99.90;;;;;;5096514;28;20175;-48
2022/04/12 08:02:53;;;;;;;5.17;3.30;;;14.30;99.90;;;;;;5097366;28;20753;-46
2022/04/12 08:05:19;;;;;;;5.27;3.23;;;14.40;99.90;;;;;;5098302;28;20165;-45
2022/04/12 08:07:47;;;;;;;11.47;2.87;;;14.40;99.90;;;;;;5097632;28;20282;-46
2022/04/12 08:10:20;;;;;;;8.77;3.33;;;14.50;99.90;;;;;;5098944;28;20535;-46
2022/04/12 08:12:47;;;;;;;7.90;3.10;;;14.50;99.90;;;;;;5098994;28;20721;-45
2022/04/12 08:15:14;;;;;;;4.20;2.87;;;14.60;99.90;;;;;;5098877;28;20171;-46
2022/04/12 08:17:40;;;;;;;4.80;2.93;;;14.70;99.90;;;;;;5098853;28;20237;-46
2022/04/12 08:20:07;;;;;;;5.90;3.10;;;14.70;99.90;;;;;;5099861;28;20595;-47
2022/04/12 08:22:33;;;;;;;7.80;3.37;;;14.80;99.90;;;;;;5099340;28;20186;-47
2022/04/12 08:24:59;;;;;;;7.37;3.10;;;14.90;99.90;;;;;;5103094;28;20199;-47
2022/04/12 08:27:25;;;;;;;5.40;2.43;;;15.00;99.90;;;;;;5102473;28;20221;-47
2022/04/12 08:29:51;;;;;;;7.37;3.27;;;15.10;99.90;;;;;;5101599;28;20174;-47
2022/04/12 08:32:17;;;;;;;7.20;2.93;;;15.20;99.90;;;;;;5101672;28;20175;-46
2022/04/12 08:34:44;;;;;;;5.77;2.90;;;15.30;99.90;;;;;;5100098;28;20254;-47
2022/04/12 08:37:10;;;;;;;7.23;3.30;;;15.40;99.90;;;;;;5100076;28;20294;-46
2022/04/12 08:39:36;;;;;;;9.73;3.20;;;15.60;99.90;;;;;;5100198;28;20183;-48
2022/04/12 08:42:03;;;;;;;7.50;3.20;;;15.70;99.90;;;;;;5082202;28;20217;-46
2022/04/12 08:44:30;;;;;;;5.60;2.90;;;15.80;99.90;;;;;;5082521;28;20286;-46
2022/04/12 08:46:57;;;;;;;4.67;3.03;;;15.90;99.90;;;;;;5100278;28;20195;-48
2022/04/12 08:49:27;;;;;;;8.47;2.97;;;16.10;99.90;;;;;;5100321;28;20258;-45
2022/04/12 08:51:53;;;;;;;7.23;2.87;;;16.10;99.90;;;;;;5099617;28;20516;-48
2022/04/12 08:54:19;;;;;;;7.37;3.17;;;16.20;99.90;;;;;;5099968;28;20190;-46
2022/04/12 08:56:48;;;;;;;7.17;2.80;;;16.40;99.90;;;;;;5099687;28;20199;-47
2022/04/12 08:59:15;;;;;;;9.37;2.60;;;16.40;99.90;;;;;;5099821;28;20177;-47
2022/04/12 09:01:41;;;;;;;5.93;2.80;;;16.60;99.90;;;;;;5099860;28;20265;-46
2022/04/12 09:04:08;;;;;;;4.47;2.30;;;16.70;99.90;;;;;;5101335;28;20246;-45
2022/04/12 09:06:34;;;;;;;10.07;2.40;;;16.80;99.90;;;;;;5102635;28;20198;-45
2022/04/12 09:09:13;;;;;;;9.03;2.53;;;16.90;99.90;;;;;;5101591;28;20170;-45
2022/04/12 09:11:42;;;;;;;8.63;2.13;;;16.90;99.90;;;;;;5101895;28;20250;-44
2022/04/12 09:14:13;;;;;;;3.20;2.23;;;17.00;99.90;;;;;;5096167;28;20171;-43
2022/04/12 09:16:45;;;;;;;3.70;2.30;;;17.00;99.90;;;;;;5096157;28;20195;-43
2022/04/12 09:19:11;;;;;;;6.10;2.03;;;17.10;99.90;;;;;;5096367;28;20167;-42
2022/04/12 09:21:46;;;;;;;4.83;2.30;;;17.20;99.90;;;;;;5096009;28;20725;-43
2022/04/12 09:24:20;;;;;;;3.20;1.70;;;17.20;99.90;;;;;;5096119;28;20194;-42
2022/04/12 09:26:57;;;;;;;8.30;2.17;;;17.30;99.90;;;;;;5096280;28;20194;-42
2022/04/12 09:29:31;;;;;;;15.13;2.27;;;17.40;99.90;;;;;;5096639;28;20620;-43
2022/04/12 09:32:00;;;;;;;9.53;2.13;;;17.60;99.90;;;;;;5096173;28;20533;-43
2022/04/12 09:34:26;;;;;;;4.47;1.93;;;17.70;99.90;;;;;;5094600;28;20190;-43
2022/04/12 09:36:52;;;;;;;8.27;2.20;;;17.90;99.90;;;;;;5095978;28;20202;-42
2022/04/12 09:39:19;;;;;;;6.23;1.60;;;18.00;99.90;;;;;;5096345;28;20175;-42
2022/04/12 09:41:48;;;;;;;7.17;1.90;;;18.20;99.90;;;;;;5097023;28;20175;-41
2022/04/12 09:44:17;;;;;;;9.70;1.97;;;18.20;99.90;;;;;;5096439;28;20205;-41
2022/04/12 09:46:44;;;;;;;4.23;2.17;;;18.40;99.90;;;;;;5096634;28;20653;-41
2022/04/12 09:49:10;;;;;;;6.03;1.83;;;18.50;99.90;;;;;;5095512;28;20171;-41
2022/04/12 09:51:37;;;;;;;8.93;2.17;;;18.50;99.90;;;;;;5077139;28;20213;-39
2022/04/12 09:54:06;;;;;;;8.80;1.73;;;18.60;99.90;;;;;;5095491;28;20277;-40
2022/04/12 09:56:33;;;;;;;6.67;1.80;;;18.80;99.90;;;;;;5077089;28;20206;-42
2022/04/12 09:59:06;;;;;;;3.27;2.00;;;18.90;99.90;;;;;;5095378;28;20248;-42
2022/04/12 10:01:39;;;;;;;5.47;2.10;;;19.00;99.90;;;;;;5077095;28;20244;-40
2022/04/12 10:04:10;;;;;;;7.40;2.30;;;19.00;99.90;;;;;;5094955;28;20272;-42
2022/04/12 10:06:41;;;;;;;5.03;2.47;;;19.10;99.90;;;;;;5095327;28;20740;-43
2022/04/12 10:09:09;;;;;;;5.47;2.50;;;19.30;99.90;;;;;;5076995;28;20544;-39
2022/04/12 10:11:36;;;;;;;5.23;2.30;;;19.40;99.90;;;;;;5095325;28;20224;-41
2022/04/12 10:14:02;;;;;;;4.67;2.50;;;19.50;99.90;;;;;;5094986;28;20183;-39
2022/04/12 10:16:28;;;;;;;7.67;2.43;;;19.50;99.90;;;;;;5076642;28;20668;-43
2022/04/12 10:18:54;;;;;;;9.60;2.50;;;19.70;99.90;;;;;;5076757;28;20273;-41
2022/04/12 10:21:22;;;;;;;6.00;2.43;;;19.70;99.90;;;;;;5095149;28;20308;-41
2022/04/12 10:23:55;;;;;;;5.50;2.63;;;19.80;99.90;;;;;;5076511;28;20217;-43
2022/04/12 10:26:22;;;;;;;6.83;2.37;;;19.90;99.90;;;;;;5076532;28;20610;-43
2022/04/12 10:28:59;;;;;;;9.43;2.60;;;20.00;99.90;;;;;;5076578;28;20548;-44
2022/04/12 10:31:30;;;;;;;7.93;2.20;;;20.10;99.90;;;;;;5076346;28;20624;-41
2022/04/12 10:33:59;;;;;;;8.53;2.73;;;20.10;99.90;;;;;;5076398;28;20178;-43
2022/04/12 10:36:24;;;;;;;6.10;2.10;;;20.10;99.90;;;;;;5094386;28;20206;-43
2022/04/12 10:38:50;;;;;;;4.60;2.50;;;20.20;99.90;;;;;;5076554;28;20183;-42
2022/04/12 10:41:22;;;;;;;4.53;2.20;;;20.30;99.90;;;;;;5094462;28;20224;-43
2022/04/12 10:43:55;;;;;;;7.30;2.07;;;20.40;99.90;;;;;;5094292;28;20680;-42
2022/04/12 10:46:20;;;;;;;5.07;2.13;;;20.50;99.90;;;;;;5093866;28;20233;-39
2022/04/12 10:48:55;;;;;;;5.10;2.20;;;20.60;99.90;;;;;;5094359;28;20657;-43
2022/04/12 10:51:36;;;;;;;5.63;2.63;;;20.70;99.90;;;;;;5094592;28;20591;-42
2022/04/12 10:54:02;;;;;;;6.73;2.80;;;20.80;99.90;;;;;;5094326;28;20529;-42
2022/04/12 10:56:27;;;;;;;8.77;3.40;;;21.00;99.90;;;;;;5094354;28;20240;-43
2022/04/12 10:58:53;;;;;;;6.57;3.37;;;21.10;99.90;;;;;;5094319;28;20182;-43
2022/04/12 11:01:33;;;;;;;5.73;3.30;;;21.10;99.90;;;;;;5094613;28;20185;-43
2022/04/12 11:04:09;;;;;;;10.17;3.83;;;21.20;99.90;;;;;;5093971;28;20222;-41
2022/04/12 11:06:34;;;;;;;3.77;2.53;;;21.20;99.90;;;;;;5076269;28;20302;-43
2022/04/12 11:09:06;;;;;;;4.93;2.90;;;21.30;99.90;;;;;;5093871;28;20207;-42
2022/04/12 11:11:44;;;;;;;12.20;2.50;;;21.50;99.90;;;;;;5094223;28;20189;-40
2022/04/12 11:14:38;;;;;;;10.93;2.70;;;21.60;99.90;;;;;;5093883;28;20155;-41
2022/04/12 11:17:14;;;;;;;11.70;3.63;;;21.70;99.90;;;;;;5093954;28;20192;-42
2022/04/12 11:19:47;;;;;;;6.17;3.37;;;21.80;99.90;;;;;;5093969;28;20205;-43
2022/04/12 11:22:14;;;;;;;6.67;3.30;;;21.90;99.90;;;;;;5093851;28;20170;-43
2022/04/12 11:24:41;;;;;;;4.03;2.37;;;21.90;99.90;;;;;;5093925;28;20206;-44
2022/04/12 11:27:08;;;;;;;5.37;2.07;;;22.20;99.90;;;;;;5095038;28;20187;-39
2022/04/12 11:29:35;;;;;;;5.13;1.70;;;22.30;99.90;;;;;;5076166;28;20255;-41
2022/04/12 11:32:01;;;;;;;6.10;2.07;;;22.50;99.90;;;;;;5094056;28;20183;-43
2022/04/12 11:34:28;;;;;;;5.07;2.27;;;22.70;99.90;;;;;;5075512;28;20270;-42
2022/04/12 11:37:04;;;;;;;5.17;2.53;;;22.90;99.90;;;;;;5075358;28;20198;-41
2022/04/12 11:39:37;;;;;;;9.37;2.67;;;23.10;99.90;;;;;;5093715;28;20652;-41
2022/04/12 11:42:05;;;;;;;4.73;3.23;;;23.30;99.90;;;;;;5093877;28;20163;-42
2022/04/12 11:44:31;;;;;;;7.43;3.10;;;23.40;99.90;;;;;;5093428;28;20206;-43
2022/04/12 11:46:56;;;;;;;5.77;3.20;;;23.50;99.90;;;;;;5093373;28;20221;-40
2022/04/12 11:49:47;;;;;;;6.03;4.00;;;23.60;99.90;;;;;;5093435;28;20254;-42
2022/04/12 11:52:15;;;;;;;4.17;3.17;;;23.80;99.90;;;;;;5093516;28;20206;-45
2022/04/12 11:54:46;;;;;;;5.03;2.90;;;23.90;99.90;;;;;;5093842;28;20537;-46
2022/04/12 11:57:13;;;;;;;5.03;3.20;;;24.00;99.90;;;;;;5093773;28;20199;-45
2022/04/12 11:59:53;;;;;;;6.67;3.03;;;24.10;99.90;;;;;;5097768;28;20179;-48
2022/04/12 12:02:21;;;;;;;3.10;1.40;;;24.10;99.90;;;;;;5098634;28;20178;-47
2022/04/12 12:04:50;;;;;;;5.07;1.50;;;24.00;99.90;;;;;;5098138;28;20216;-44
2022/04/12 12:07:17;;;;;;;4.43;1.00;;;24.00;99.90;;;;;;5097927;28;20186;-46
2022/04/12 12:10:11;;;;;;;2.60;1.13;;;24.10;99.90;;;;;;5098169;28;20163;-47
2022/04/12 12:12:45;;;;;;;2.07;1.03;;;24.10;99.90;;;;;;5100669;28;20277;-47
2022/04/12 12:15:28;;;;;;;2.17;1.00;;;24.10;99.90;;;;;;5097823;28;20245;-46
2022/04/12 12:17:54;;;;;;;1.60;1.10;;;24.20;99.90;;;;;;5097785;28;20541;-47
2022/04/12 12:20:22;;;;;;;5.83;0.97;;;24.30;99.90;;;;;;5098205;28;20178;-46
2022/04/12 12:22:51;;;;;;;2.10;1.20;;;24.40;99.90;;;;;;5097381;28;20691;-47
2022/04/12 12:25:21;;;;;;;2.20;0.77;;;24.50;99.90;;;;;;5097628;28;20213;-45
2022/04/12 12:27:52;;;;;;;1.70;0.80;;;24.70;99.90;;;;;;5097928;28;20628;-47
2022/04/12 12:30:21;;;;;;;2.63;0.93;;;24.90;99.90;;;;;;5097608;28;20171;-47
2022/04/12 12:32:51;;;;;;;2.70;1.50;;;25.10;99.90;;;;;;5097623;28;20257;-46
2022/04/12 12:35:17;;;;;;;4.70;2.33;;;25.10;99.90;;;;;;5097023;28;20199;-48
2022/04/12 12:37:45;;;;;;;4.47;2.20;;;25.10;99.90;;;;;;5097326;28;20195;-46
2022/04/12 12:40:27;;;;;;;3.97;1.77;;;25.00;99.90;;;;;;5097526;28;20190;-48
2022/04/12 12:42:55;;;;;;;2.60;1.77;;;24.90;99.90;;;;;;5105914;28;20697;-47
2022/04/12 12:45:23;;;;;;;9.17;1.90;;;24.90;99.90;;;;;;5096928;28;20206;-47
2022/04/12 12:47:54;;;;;;;4.80;1.70;;;24.90;99.90;;;;;;5096886;28;20175;-45
2022/04/12 12:50:21;;;;;;;3.27;1.60;;;24.80;99.90;;;;;;5096616;28;20175;-48
2022/04/12 12:52:48;;;;;;;3.17;1.70;;;24.80;99.90;;;;;;5096804;28;20637;-47
2022/04/12 12:55:19;;;;;;;2.33;1.50;;;24.80;99.90;;;;;;5096892;28;20205;-45
2022/04/12 12:57:47;;;;;;;5.60;1.73;;;24.70;99.90;;;;;;5096727;28;20203;-46